Vg 117 Kungsvik — SBTH — position and weather

sailwx.info

Track history (hours):
 
Tides and Currents Weather Stations Pressure Air Temp Water Temp Dewpoint Dewpoint Depression Visibility Wind Speed Wind Dir Waves Ship Positions

Vg 117 Kungsvik

Last reported at 2016-Jul-24 14:14 UTC. Time now 2016-Jul-24 16:32 UTC.
Position N 57°04' E 012°16'.

Length 17 m; draft 3.7 m.

Type: Fishing. MMSI: 266137000.

Date/timePositionNaut miles runAvg speedWind from/ knotsBaromVisibWave heightAir tempDewpointWater temp
2016-Jul-24 14:14N 57°04' E 012°16'0 0.0
2016-Jul-24 13:32N 57°04' E 012°16'0 0.0
2016-Jul-24 12:26N 57°04' E 012°16'0 0.0
2016-Jul-24 11:32N 57°04' E 012°16'0 0.0
2016-Jul-24 10:14N 57°04' E 012°16'0 0.0
2016-Jul-24 09:08N 57°04' E 012°16'0 0.0
2016-Jul-24 08:32N 57°04' E 012°16'0 0.0
2016-Jul-24 07:26N 57°04' E 012°16'0 0.0
2016-Jul-24 06:08N 57°04' E 012°16'0 0.0
2016-Jul-24 05:32N 57°04' E 012°16'0 0.0
2016-Jul-24 03:08N 57°04' E 012°16'0 0.0
2016-Jul-24 00:14N 57°04' E 012°16'0 0.0
2016-Jul-23 23:32N 57°04' E 012°16'0 0.0
2016-Jul-23 22:32N 57°04' E 012°16'0 0.0
2016-Jul-23 21:08N 57°04' E 012°16'0 0.0
2016-Jul-23 19:26N 57°04' E 012°16'0 0.0
2016-Jul-23 18:14N 57°04' E 012°16'0 0.0
2016-Jul-23 16:32N 57°04' E 012°16'0 0.0
2016-Jul-23 14:20N 57°04' E 012°16'0 0.0
2016-Jul-23 13:32N 57°04' E 012°16'0 0.0
2016-Jul-23 11:26N 57°04' E 012°16'0 0.0
2016-Jul-23 10:26N 57°04' E 012°16'0 0.0
2016-Jul-23 09:20N 57°04' E 012°16'0 0.0
2016-Jul-23 08:20N 57°04' E 012°16'0 0.0
2016-Jul-23 06:32N 57°04' E 012°16'0 0.0
2016-Jul-23 02:20N 57°04' E 012°16'0 0.0
2016-Jul-23 01:26N 57°04' E 012°16'0 0.0
2016-Jul-23 00:20N 57°04' E 012°16'0 0.0
2016-Jul-22 22:26N 57°04' E 012°16'0 0.0
2016-Jul-22 21:32N 57°04' E 012°16'0 0.0
2016-Jul-22 20:20N 57°04' E 012°16'0 0.0
2016-Jul-22 18:32N 57°04' E 012°16'0 0.0
2016-Jul-22 17:26N 57°04' E 012°16'0 0.0
2016-Jul-22 15:20N 57°04' E 012°16'0 0.0
2016-Jul-22 14:14N 57°04' E 012°16'0 0.0
2016-Jul-22 13:14N 57°04' E 012°16'0 0.0
2016-Jul-22 12:32N 57°04' E 012°16'0 0.0
2016-Jul-22 11:32N 57°04' E 012°16'0 0.0
2016-Jul-22 10:26N 57°04' E 012°16'0 0.0
2016-Jul-22 09:26N 57°04' E 012°16'0 0.0
2016-Jul-22 08:08N 57°04' E 012°16'9 0.7
2016-Jul-21 18:33N 57°03' E 011°60'7 6.6
2016-Jul-21 17:31N 57°03' E 012°12'2 0.7
2016-Jul-21 14:16N 57°04' E 012°16'0 0.0
2016-Jul-21 13:28N 57°04' E 012°16'0 0.0
2016-Jul-21 12:28N 57°04' E 012°16'0 0.0
2016-Jul-21 11:16N 57°04' E 012°16'0 0.0
2016-Jul-21 10:28N 57°04' E 012°16'0 0.0
2016-Jul-21 09:28N 57°04' E 012°16'0 0.0
2016-Jul-21 08:28N 57°04' E 012°16'0 0.0
2016-Jul-21 07:04N 57°04' E 012°16'2 3.6
2016-Jul-21 06:23N 57°03' E 012°12'12 5.6
2016-Jul-21 04:18N 57°04' E 011°51'2 2.4
2016-Jul-21 03:33N 57°03' E 011°48'3 2.4
2016-Jul-21 02:30N 57°01' E 011°45'1 0.7
2016-Jul-21 01:27N 57°01' E 011°46'2 2.4
2016-Jul-21 00:33N 57°03' E 011°48'2 0.5
2016-Jul-20 21:33N 57°01' E 011°47'2 2.2
2016-Jul-20 20:33N 57°03' E 011°50'2 2.5
2016-Jul-20 19:33N 57°03' E 011°55'3 2.7
2016-Jul-20 18:31N 57°03' E 011°60'7 6.5
2016-Jul-20 17:30N 57°03' E 012°12'2 2.0
2016-Jul-20 16:17N 57°04' E 012°16'0 0.0
2016-Jul-20 14:17N 57°04' E 012°16'0 0.0
2016-Jul-20 13:29N 57°04' E 012°16'0 0.0
2016-Jul-20 08:23N 57°04' E 012°16'0 0.0
2016-Jul-20 07:23N 57°04' E 012°16'2 2.6
2016-Jul-20 06:32N 57°03' E 012°12'13 2.6
2016-Jul-20 01:32N 57°01' E 011°49'2 0.4
2016-Jul-19 21:27N 57°01' E 011°46'2 2.2
2016-Jul-19 20:33N 57°03' E 011°47'7 2.9
2016-Jul-19 18:05N 57°05' E 011°60'4 7.6
2016-Jul-19 17:33N 57°04' E 012°07'5 4.8
2016-Jul-19 16:29N 57°04' E 012°16'0 0.0
2016-Jul-19 15:29N 57°04' E 012°16'0 0.0
2016-Jul-19 14:17N 57°04' E 012°16'0 0.0
2016-Jul-19 12:29N 57°04' E 012°16'0 0.0
2016-Jul-19 11:29N 57°04' E 012°16'0 0.0
2016-Jul-19 10:29N 57°04' E 012°16'0 0.0
2016-Jul-19 09:29N 57°04' E 012°16'0 0.0
2016-Jul-19 08:29N 57°04' E 012°16'0 0.0
2016-Jul-19 07:05N 57°04' E 012°16'9 0.7
2016-Jul-18 18:33N 57°04' E 012°01'9 0.3
2016-Jul-17 12:19N 57°04' E 012°16'0 0.0
2016-Jul-17 10:31N 57°04' E 012°16'0 0.0
2016-Jul-17 09:25N 57°04' E 012°16'0 0.0
2016-Jul-17 08:25N 57°04' E 012°16'0 0.0
2016-Jul-17 07:19N 57°04' E 012°16'0 0.0
2016-Jul-17 06:19N 57°04' E 012°16'0 0.0
2016-Jul-17 04:31N 57°04' E 012°16'0 0.0
2016-Jul-17 03:07N 57°04' E 012°16'0 0.0
2016-Jul-17 02:31N 57°04' E 012°16'0 0.0
2016-Jul-17 01:31N 57°04' E 012°16'0 0.0
2016-Jul-17 00:13N 57°04' E 012°16'0 0.0
2016-Jul-16 23:31N 57°04' E 012°16'0 0.0
2016-Jul-16 22:13N 57°04' E 012°16'0 0.0
2016-Jul-16 21:31N 57°04' E 012°16'0 0.0
2016-Jul-16 20:25N 57°04' E 012°16'0 0.0
2016-Jul-16 19:31N 57°04' E 012°16'0 0.0
2016-Jul-16 18:31N 57°04' E 012°16'0 0.0
2016-Jul-16 17:31N 57°04' E 012°16'0 0.0
2016-Jul-16 16:25N 57°04' E 012°16'0 0.0
2016-Jul-16 15:31N 57°04' E 012°16'0 0.0
2016-Jul-16 14:25N 57°04' E 012°16'0 0.0
2016-Jul-16 13:31N 57°04' E 012°16'0 0.0
2016-Jul-16 12:19N 57°04' E 012°16'0 0.0
2016-Jul-16 11:25N 57°04' E 012°16'0 0.0
2016-Jul-16 09:31N 57°04' E 012°16'0 0.0
2016-Jul-16 08:31N 57°04' E 012°16'0 0.0
2016-Jul-16 07:19N 57°04' E 012°16'0 0.0
2016-Jul-16 04:19N 57°04' E 012°16'0 0.0
2016-Jul-16 03:25N 57°04' E 012°16'0 0.0
2016-Jul-16 02:19N 57°04' E 012°16'0 0.0
2016-Jul-16 01:31N 57°04' E 012°16'0 0.0
2016-Jul-16 00:13N 57°04' E 012°16'0 0.0
2016-Jul-15 23:25N 57°04' E 012°16'0 0.0
2016-Jul-15 22:19N 57°04' E 012°16'0 0.0
2016-Jul-15 21:31N 57°04' E 012°16'0 0.0
2016-Jul-15 20:31N 57°04' E 012°16'0 0.0
2016-Jul-15 19:31N 57°04' E 012°16'0 0.0
2016-Jul-15 18:31N 57°04' E 012°16'0 0.0
2016-Jul-15 17:31N 57°04' E 012°16'0 0.0
2016-Jul-15 16:25N 57°04' E 012°16'0 0.0
2016-Jul-15 15:25N 57°04' E 012°16'0 0.0
2016-Jul-15 14:31N 57°04' E 012°16'0 0.0
2016-Jul-15 13:25N 57°04' E 012°16'0 0.0
2016-Jul-15 12:31N 57°04' E 012°16'0 0.0
2016-Jul-15 11:31N 57°04' E 012°16'0 0.0
2016-Jul-15 10:13N 57°04' E 012°16'0 0.0
2016-Jul-15 09:31N 57°04' E 012°16'0 0.0
2016-Jul-15 08:19N 57°04' E 012°16'0 0.0
2016-Jul-15 07:31N 57°04' E 012°16'0 0.0
2016-Jul-15 06:31N 57°04' E 012°16'7 0.6
2016-Jul-14 18:33N 57°03' E 012°03'  
Track history (hours):
 
Tides and Currents Weather Stations Pressure Air Temp Water Temp Dewpoint Dewpoint Depression Visibility Wind Speed Wind Dir Waves Ship Positions

Vg 117 Kungsvik

Last reported at 2016-Jul-24 14:14 UTC. Time now 2016-Jul-24 16:32 UTC.
Position N 57°04' E 012°16'.

Length 17 m; draft 3.7 m.

Type: Fishing. MMSI: 266137000.

Date/timePositionNaut miles runAvg speedWind from/ knotsBaromVisibWave heightAir tempDewpointWater temp
2016-Jul-24 14:14N 57°04' E 012°16'0 0.0
2016-Jul-24 13:32N 57°04' E 012°16'0 0.0
2016-Jul-24 12:26N 57°04' E 012°16'0 0.0
2016-Jul-24 11:32N 57°04' E 012°16'0 0.0
2016-Jul-24 10:14N 57°04' E 012°16'0 0.0
2016-Jul-24 09:08N 57°04' E 012°16'0 0.0
2016-Jul-24 08:32N 57°04' E 012°16'0 0.0
2016-Jul-24 07:26N 57°04' E 012°16'0 0.0
2016-Jul-24 06:08N 57°04' E 012°16'0 0.0
2016-Jul-24 05:32N 57°04' E 012°16'0 0.0
2016-Jul-24 03:08N 57°04' E 012°16'0 0.0
2016-Jul-24 00:14N 57°04' E 012°16'0 0.0
2016-Jul-23 23:32N 57°04' E 012°16'0 0.0
2016-Jul-23 22:32N 57°04' E 012°16'0 0.0
2016-Jul-23 21:08N 57°04' E 012°16'0 0.0
2016-Jul-23 19:26N 57°04' E 012°16'0 0.0
2016-Jul-23 18:14N 57°04' E 012°16'0 0.0
2016-Jul-23 16:32N 57°04' E 012°16'0 0.0
2016-Jul-23 14:20N 57°04' E 012°16'0 0.0
2016-Jul-23 13:32N 57°04' E 012°16'0 0.0
2016-Jul-23 11:26N 57°04' E 012°16'0 0.0
2016-Jul-23 10:26N 57°04' E 012°16'0 0.0
2016-Jul-23 09:20N 57°04' E 012°16'0 0.0
2016-Jul-23 08:20N 57°04' E 012°16'0 0.0
2016-Jul-23 06:32N 57°04' E 012°16'0 0.0
2016-Jul-23 02:20N 57°04' E 012°16'0 0.0
2016-Jul-23 01:26N 57°04' E 012°16'0 0.0
2016-Jul-23 00:20N 57°04' E 012°16'0 0.0
2016-Jul-22 22:26N 57°04' E 012°16'0 0.0
2016-Jul-22 21:32N 57°04' E 012°16'0 0.0
2016-Jul-22 20:20N 57°04' E 012°16'0 0.0
2016-Jul-22 18:32N 57°04' E 012°16'0 0.0
2016-Jul-22 17:26N 57°04' E 012°16'0 0.0
2016-Jul-22 15:20N 57°04' E 012°16'0 0.0
2016-Jul-22 14:14N 57°04' E 012°16'0 0.0
2016-Jul-22 13:14N 57°04' E 012°16'0 0.0
2016-Jul-22 12:32N 57°04' E 012°16'0 0.0
2016-Jul-22 11:32N 57°04' E 012°16'0 0.0
2016-Jul-22 10:26N 57°04' E 012°16'0 0.0
2016-Jul-22 09:26N 57°04' E 012°16'0 0.0
2016-Jul-22 08:08N 57°04' E 012°16'9 0.7
2016-Jul-21 18:33N 57°03' E 011°60'7 6.6
2016-Jul-21 17:31N 57°03' E 012°12'2 0.7
2016-Jul-21 14:16N 57°04' E 012°16'0 0.0
2016-Jul-21 13:28N 57°04' E 012°16'0 0.0
2016-Jul-21 12:28N 57°04' E 012°16'0 0.0
2016-Jul-21 11:16N 57°04' E 012°16'0 0.0
2016-Jul-21 10:28N 57°04' E 012°16'0 0.0
2016-Jul-21 09:28N 57°04' E 012°16'0 0.0
2016-Jul-21 08:28N 57°04' E 012°16'0 0.0
2016-Jul-21 07:04N 57°04' E 012°16'2 3.6
2016-Jul-21 06:23N 57°03' E 012°12'12 5.6
2016-Jul-21 04:18N 57°04' E 011°51'2 2.4
2016-Jul-21 03:33N 57°03' E 011°48'3 2.4
2016-Jul-21 02:30N 57°01' E 011°45'1 0.7
2016-Jul-21 01:27N 57°01' E 011°46'2 2.4
2016-Jul-21 00:33N 57°03' E 011°48'2 0.5
2016-Jul-20 21:33N 57°01' E 011°47'2 2.2
2016-Jul-20 20:33N 57°03' E 011°50'2 2.5
2016-Jul-20 19:33N 57°03' E 011°55'3 2.7
2016-Jul-20 18:31N 57°03' E 011°60'7 6.5
2016-Jul-20 17:30N 57°03' E 012°12'2 2.0
2016-Jul-20 16:17N 57°04' E 012°16'0 0.0
2016-Jul-20 14:17N 57°04' E 012°16'0 0.0
2016-Jul-20 13:29N 57°04' E 012°16'0 0.0
2016-Jul-20 08:23N 57°04' E 012°16'0 0.0
2016-Jul-20 07:23N 57°04' E 012°16'2 2.6
2016-Jul-20 06:32N 57°03' E 012°12'13 2.6
2016-Jul-20 01:32N 57°01' E 011°49'2 0.4
2016-Jul-19 21:27N 57°01' E 011°46'2 2.2
2016-Jul-19 20:33N 57°03' E 011°47'7 2.9
2016-Jul-19 18:05N 57°05' E 011°60'4 7.6
2016-Jul-19 17:33N 57°04' E 012°07'5 4.8
2016-Jul-19 16:29N 57°04' E 012°16'0 0.0
2016-Jul-19 15:29N 57°04' E 012°16'0 0.0
2016-Jul-19 14:17N 57°04' E 012°16'0 0.0
2016-Jul-19 12:29N 57°04' E 012°16'0 0.0
2016-Jul-19 11:29N 57°04' E 012°16'0 0.0
2016-Jul-19 10:29N 57°04' E 012°16'0 0.0
2016-Jul-19 09:29N 57°04' E 012°16'0 0.0
2016-Jul-19 08:29N 57°04' E 012°16'0 0.0
2016-Jul-19 07:05N 57°04' E 012°16'9 0.7
2016-Jul-18 18:33N 57°04' E 012°01'9 0.3
2016-Jul-17 12:19N 57°04' E 012°16'0 0.0
2016-Jul-17 10:31N 57°04' E 012°16'0 0.0
2016-Jul-17 09:25N 57°04' E 012°16'0 0.0
2016-Jul-17 08:25N 57°04' E 012°16'0 0.0
2016-Jul-17 07:19N 57°04' E 012°16'0 0.0
2016-Jul-17 06:19N 57°04' E 012°16'0 0.0
2016-Jul-17 04:31N 57°04' E 012°16'0 0.0
2016-Jul-17 03:07N 57°04' E 012°16'0 0.0
2016-Jul-17 02:31N 57°04' E 012°16'0 0.0
2016-Jul-17 01:31N 57°04' E 012°16'0 0.0
2016-Jul-17 00:13N 57°04' E 012°16'0 0.0
2016-Jul-16 23:31N 57°04' E 012°16'0 0.0
2016-Jul-16 22:13N 57°04' E 012°16'0 0.0
2016-Jul-16 21:31N 57°04' E 012°16'0 0.0
2016-Jul-16 20:25N 57°04' E 012°16'0 0.0
2016-Jul-16 19:31N 57°04' E 012°16'0 0.0
2016-Jul-16 18:31N 57°04' E 012°16'0 0.0
2016-Jul-16 17:31N 57°04' E 012°16'0 0.0
2016-Jul-16 16:25N 57°04' E 012°16'0 0.0
2016-Jul-16 15:31N 57°04' E 012°16'0 0.0
2016-Jul-16 14:25N 57°04' E 012°16'0 0.0
2016-Jul-16 13:31N 57°04' E 012°16'0 0.0
2016-Jul-16 12:19N 57°04' E 012°16'0 0.0
2016-Jul-16 11:25N 57°04' E 012°16'0 0.0
2016-Jul-16 09:31N 57°04' E 012°16'0 0.0
2016-Jul-16 08:31N 57°04' E 012°16'0 0.0
2016-Jul-16 07:19N 57°04' E 012°16'0 0.0
2016-Jul-16 04:19N 57°04' E 012°16'0 0.0
2016-Jul-16 03:25N 57°04' E 012°16'0 0.0
2016-Jul-16 02:19N 57°04' E 012°16'0 0.0
2016-Jul-16 01:31N 57°04' E 012°16'0 0.0
2016-Jul-16 00:13N 57°04' E 012°16'0 0.0
2016-Jul-15 23:25N 57°04' E 012°16'0 0.0
2016-Jul-15 22:19N 57°04' E 012°16'0 0.0
2016-Jul-15 21:31N 57°04' E 012°16'0 0.0
2016-Jul-15 20:31N 57°04' E 012°16'0 0.0
2016-Jul-15 19:31N 57°04' E 012°16'0 0.0
2016-Jul-15 18:31N 57°04' E 012°16'0 0.0
2016-Jul-15 17:31N 57°04' E 012°16'0 0.0
2016-Jul-15 16:25N 57°04' E 012°16'0 0.0
2016-Jul-15 15:25N 57°04' E 012°16'0 0.0
2016-Jul-15 14:31N 57°04' E 012°16'0 0.0
2016-Jul-15 13:25N 57°04' E 012°16'0 0.0
2016-Jul-15 12:31N 57°04' E 012°16'0 0.0
2016-Jul-15 11:31N 57°04' E 012°16'0 0.0
2016-Jul-15 10:13N 57°04' E 012°16'0 0.0
2016-Jul-15 09:31N 57°04' E 012°16'0 0.0
2016-Jul-15 08:19N 57°04' E 012°16'0 0.0
2016-Jul-15 07:31N 57°04' E 012°16'0 0.0
2016-Jul-15 06:31N 57°04' E 012°16'7 0.6
2016-Jul-14 18:33N 57°03' E 012°03'  

Dump ship's entire track history